地図

経路データ

SID SEASON NUMBER BASIN SUBBASIN NAME ISO_TIME NATURE LAT LON WMO_WIND WMO_PRES WMO_AGENCY TRACK_TYPE DIST2LAND LANDFALL IFLAG USA_AGENCY USA_ATCF_ID USA_LAT USA_LON USA_RECORD USA_STATUS USA_WIND USA_PRES USA_SSHS USA_R34_NE USA_R34_SE USA_R34_SW USA_R34_NW USA_R50_NE USA_R50_SE USA_R50_SW USA_R50_NW USA_R64_NE USA_R64_SE USA_R64_SW USA_R64_NW USA_POCI USA_ROCI USA_RMW USA_EYE TOKYO_LAT TOKYO_LON TOKYO_GRADE TOKYO_WIND TOKYO_PRES TOKYO_R50_DIR TOKYO_R50_LONG TOKYO_R50_SHORT TOKYO_R30_DIR TOKYO_R30_LONG TOKYO_R30_SHORT TOKYO_LAND CMA_LAT CMA_LON CMA_CAT CMA_WIND CMA_PRES HKO_LAT HKO_LON HKO_CAT HKO_WIND HKO_PRES NEWDELHI_LAT NEWDELHI_LON NEWDELHI_GRADE NEWDELHI_WIND NEWDELHI_PRES NEWDELHI_CI NEWDELHI_DP NEWDELHI_POCI REUNION_LAT REUNION_LON REUNION_TYPE REUNION_WIND REUNION_PRES REUNION_TNUM REUNION_CI REUNION_RMW REUNION_R34_NE REUNION_R34_SE REUNION_R34_SW REUNION_R34_NW REUNION_R50_NE REUNION_R50_SE REUNION_R50_SW REUNION_R50_NW REUNION_R64_NE REUNION_R64_SE REUNION_R64_SW REUNION_R64_NW BOM_LAT BOM_LON BOM_TYPE BOM_WIND BOM_PRES BOM_TNUM BOM_CI BOM_RMW BOM_R34_NE BOM_R34_SE BOM_R34_SW BOM_R34_NW BOM_R50_NE BOM_R50_SE BOM_R50_SW BOM_R50_NW BOM_R64_NE BOM_R64_SE BOM_R64_SW BOM_R64_NW BOM_ROCI BOM_POCI BOM_EYE BOM_POS_METHOD BOM_PRES_METHOD NADI_LAT NADI_LON NADI_CAT NADI_WIND NADI_PRES WELLINGTON_LAT WELLINGTON_LON WELLINGTON_WIND WELLINGTON_PRES DS824_LAT DS824_LON DS824_STAGE DS824_WIND DS824_PRES TD9636_LAT TD9636_LON TD9636_STAGE TD9636_WIND TD9636_PRES TD9635_LAT TD9635_LON TD9635_WIND TD9635_PRES TD9635_ROCI NEUMANN_LAT NEUMANN_LON NEUMANN_CLASS NEUMANN_WIND NEUMANN_PRES MLC_LAT MLC_LON MLC_CLASS MLC_WIND MLC_PRES USA_GUST BOM_GUST BOM_GUST_PER REUNION_GUST REUNION_GUST_PER USA_SEAHGT USA_SEARAD_NE USA_SEARAD_SE USA_SEARAD_SW USA_SEARAD_NW STORM_SPEED STORM_DIR
1871080S16068 1871 9 SI MM NOT_NAMED 1871-03-21 06:00:00 NR -16.3000 68.2000 reunion spur-split 1185 1175 _____O________ -1 -16.3000 68.2000 99 9.90000 2 250
1871080S16068 1871 9 SI MM NOT_NAMED 1871-03-21 09:00:00 NR -16.3277 68.1207 spur-split 1175 1161 _____P________ -1 -16.3277 68.1207 99 2 249
1871080S16068 1871 9 SI MM NOT_NAMED 1871-03-21 12:00:00 NR -16.3599 68.0359 spur-split 1161 1151 _____P________ -1 -16.3599 68.0359 99 2 247
1871080S16068 1871 9 SI MM NOT_NAMED 1871-03-21 15:00:00 NR -16.4011 67.9401 spur-split 1151 1137 _____P________ -1 -16.4011 67.9401 99 2 245
1871080S16068 1871 9 SI MM NOT_NAMED 1871-03-21 18:00:00 NR -16.4559 67.8276 spur-split 1137 1127 _____P________ -1 -16.4559 67.8276 99 3 242
1871080S16068 1871 9 SI MM NOT_NAMED 1871-03-21 21:00:00 NR -16.5287 67.6930 spur-split 1127 1103 _____P________ -1 -16.5287 67.6930 99 3 239
1871080S16068 1871 9 SI MM NOT_NAMED 1871-03-22 00:00:00 NR -16.6240 67.5307 spur-split 1103 1079 _____P________ -1 -16.6240 67.5307 99 4 238
1871080S16068 1871 9 SI MM NOT_NAMED 1871-03-22 03:00:00 NR -16.7463 67.3349 spur-split 1079 1051 _____P________ -1 -16.7463 67.3349 99 5 236
1871080S16068 1871 9 SI MM NOT_NAMED 1871-03-22 06:00:00 NR -16.9000 67.1000 reunion spur-split 1051 1013 _____O________ -1 -16.9000 67.1000 99 9.90000 6 235
1871080S16068 1871 9 SI MM NOT_NAMED 1871-03-22 09:00:00 NR -17.0879 66.8229 spur-split 1013 975 _____P________ -1 -17.0879 66.8229 99 7 234
1871080S16068 1871 9 SI MM NOT_NAMED 1871-03-22 12:00:00 NR -17.3067 66.5111 spur-split 975 937 _____P________ -1 -17.3067 66.5111 99 8 233
1871080S16068 1871 9 SI MM NOT_NAMED 1871-03-22 15:00:00 NR -17.5516 66.1752 spur-split 933 886 _____P________ -1 -17.5516 66.1752 99 8 232
1871080S16068 1871 9 SI MM NOT_NAMED 1871-03-22 18:00:00 NR -17.8176 65.8254 spur-split 886 845 _____P________ -1 -17.8176 65.8254 99 9 231
1871080S16068 1871 9 SI MM NOT_NAMED 1871-03-22 21:00:00 NR -18.1001 65.4724 spur-split 845 794 _____P________ -1 -18.1001 65.4724 99 9 229
1871080S16068 1871 9 SI MM NOT_NAMED 1871-03-23 00:00:00 NR -18.3944 65.1266 spur-split 794 755 _____P________ -1 -18.3944 65.1266 99 9 227
1871080S16068 1871 9 SI MM NOT_NAMED 1871-03-23 03:00:00 NR -18.6958 64.7989 spur-split 755 716 _____P________ -1 -18.6958 64.7989 99 9 224
1871080S16068 1871 9 SI MM NOT_NAMED 1871-03-23 06:00:00 NR -19.0000 64.5000 reunion spur-split 716 689 _____O________ -1 -19.0000 64.5000 99 9.90000 8 220
1871080S16068 1871 9 SI MM NOT_NAMED 1871-03-23 09:00:00 NR -19.3122 64.2462 spur-split 678 652 _____P________ -1 -19.3122 64.2462 99 8 216
1871080S16068 1871 9 SI MM NOT_NAMED 1871-03-23 12:00:00 NR -19.6343 64.0151 spur-split 652 628 _____P________ -1 -19.6343 64.0151 99 8 213
1871080S16068 1871 9 SI MM NOT_NAMED 1871-03-23 15:00:00 NR -19.9596 63.8065 spur-split 627 604 _____P________ -1 -19.9596 63.8065 99 7 210
1871080S16068 1871 9 SI MM NOT_NAMED 1871-03-23 18:00:00 NR -20.2814 63.6204 spur-split 604 594 _____P________ -1 -20.2814 63.6204 99 7 207
1871080S16068 1871 9 SI MM NOT_NAMED 1871-03-23 21:00:00 NR -20.5930 63.4567 spur-split 594 575 _____P________ -1 -20.5930 63.4567 99 7 205
1871080S16068 1871 9 SI MM NOT_NAMED 1871-03-24 00:00:00 NR -20.8878 63.3154 spur-split 576 567 _____P________ -1 -20.8878 63.3154 99 6 203
1871080S16068 1871 9 SI MM NOT_NAMED 1871-03-24 03:00:00 NR -21.1591 63.1965 spur-split 570 562 _____P________ -1 -21.1591 63.1965 99 6 202
1871080S16068 1871 9 SI MM NOT_NAMED 1871-03-24 06:00:00 NR -21.4000 63.1000 reunion spur-split 564 556 _____O________ -1 -21.4000 63.1000 99 9.90000 5 200
1871080S16068 1871 9 SI MM NOT_NAMED 1871-03-24 09:00:00 NR -21.6058 63.0255 spur-split 559 559 _____P________ -1 -21.6058 63.0255 99 4 197
1871080S16068 1871 9 SI MM NOT_NAMED 1871-03-24 12:00:00 NR -21.7793 62.9707 spur-split 564 558 _____P________ -1 -21.7793 62.9707 99 3 195
1871080S16068 1871 9 SI MM NOT_NAMED 1871-03-24 15:00:00 NR -21.9251 62.9328 spur-split 558 558 _____P________ -1 -21.9251 62.9328 99 3 192
1871080S16068 1871 9 SI MM NOT_NAMED 1871-03-24 18:00:00 NR -22.0477 62.9092 spur-split 561 561 _____P________ -1 -22.0477 62.9092 99 2 190
1871080S16068 1871 9 SI MM NOT_NAMED 1871-03-24 21:00:00 NR -22.1519 62.8969 spur-split 569 569 _____P________ -1 -22.1519 62.8969 99 2 0
1871080S16068 1871 9 SI MM NOT_NAMED 1871-03-25 00:00:00 NR -22.2423 62.8932 spur-split 569 569 _____P________ -1 -22.2423 62.8932 99 2 186
1871080S16068 1871 9 SI MM NOT_NAMED 1871-03-25 03:00:00 NR -22.3235 62.8951 spur-split 573 573 _____P________ -1 -22.3235 62.8951 99 2 175
1871080S16068 1871 9 SI MM NOT_NAMED 1871-03-25 06:00:00 NR -22.4000 62.9000 reunion spur-split 577 _____O________ -1 -22.4000 62.9000 99 9.90000 2 165

IBTrACS Databaseについて

本データベースは、米国NOAAが公開する1842年以降の世界の熱帯低気圧のベストトラックデータアーカイブInternational Best Track Archive for Climate Stewardship (IBTrACS)を、ウェブで閲覧しやすい形式に変換したものです。

最終更新日:2021-12-08